Time;durP1;ratioP1;P1;durP2;ratioP2;P2;SDS_P1;SDS_P2;PMS_P1;PMS_P2;Temp;Humidity;BMP_temperature;BMP_pressure;BME280_temperature;BME280_humidity;BME280_pressure;Samples;Min_cycle;Max_cycle;Signal;HPM_P1;HPM_P2
2021/09/17 00:01:26;;;;;;;6.93;5.70;;;12.00;99.90;;;;;;5008754;28;20661;-57
2021/09/17 00:03:52;;;;;;;11.00;6.83;;;12.00;99.90;;;;;;5008930;28;20687;-59
2021/09/17 00:06:18;;;;;;;9.80;6.20;;;12.00;99.90;;;;;;5007011;28;20701;-59
2021/09/17 00:08:43;;;;;;;7.00;5.63;;;11.90;99.90;;;;;;5016348;28;20722;-58
2021/09/17 00:11:09;;;;;;;8.60;6.17;;;11.90;99.90;;;;;;5007962;28;20187;-58
2021/09/17 00:13:36;;;;;;;14.07;5.90;;;11.90;99.90;;;;;;5016193;28;20272;-59
2021/09/17 00:16:02;;;;;;;7.83;5.30;;;11.80;99.90;;;;;;5008686;28;20263;-58
2021/09/17 00:18:28;;;;;;;7.83;5.67;;;11.80;99.90;;;;;;5007151;28;20825;-58
2021/09/17 00:20:54;;;;;;;9.30;5.37;;;11.70;99.90;;;;;;4993982;28;20446;-58
2021/09/17 00:23:20;;;;;;;10.10;5.33;;;11.70;99.90;;;;;;5004673;28;20192;-58
2021/09/17 00:25:45;;;;;;;11.47;5.30;;;11.70;99.90;;;;;;5010903;28;20642;-58
2021/09/17 00:28:11;;;;;;;6.67;4.90;;;11.60;99.90;;;;;;5003606;28;20662;-59
2021/09/17 00:30:37;;;;;;;7.93;4.53;;;11.60;99.90;;;;;;5005532;28;20188;-58
2021/09/17 00:33:04;;;;;;;4.70;4.20;;;11.60;99.90;;;;;;5002816;28;20212;-58
2021/09/17 00:35:29;;;;;;;7.47;4.67;;;11.50;99.90;;;;;;5008841;28;20774;-58
2021/09/17 00:37:55;;;;;;;7.77;4.50;;;11.50;99.90;;;;;;5007206;28;20472;-59
2021/09/17 00:40:22;;;;;;;6.73;4.67;;;11.50;99.90;;;;;;5002468;28;20177;-61
2021/09/17 00:42:48;;;;;;;10.77;4.63;;;11.50;99.90;;;;;;5004399;28;20522;-58
2021/09/17 00:45:14;;;;;;;5.93;4.47;;;11.50;99.90;;;;;;5002070;28;20523;-59
2021/09/17 00:47:41;;;;;;;8.10;4.60;;;11.50;99.90;;;;;;5013339;28;20522;-59
2021/09/17 00:50:10;;;;;;;5.33;4.40;;;11.50;99.90;;;;;;5001875;28;20959;-58
2021/09/17 00:52:36;;;;;;;7.03;3.90;;;11.50;99.90;;;;;;4987465;28;20479;-58
2021/09/17 00:55:03;;;;;;;6.97;4.57;;;11.50;99.90;;;;;;5001614;28;20556;-58
2021/09/17 00:57:29;;;;;;;8.60;4.73;;;11.50;99.90;;;;;;5001105;28;20184;-58
2021/09/17 00:59:55;;;;;;;5.20;4.20;;;11.40;99.90;;;;;;5003282;28;20429;-58
2021/09/17 01:02:21;;;;;;;5.10;4.13;;;11.40;99.90;;;;;;5000987;28;20803;-58
2021/09/17 01:04:46;;;;;;;6.30;4.83;;;11.40;99.90;;;;;;5003519;28;20927;-59
2021/09/17 01:07:12;;;;;;;6.70;4.10;;;11.40;99.90;;;;;;5000694;28;20195;-58
2021/09/17 01:09:39;;;;;;;6.83;4.20;;;11.30;99.90;;;;;;4984186;28;20185;-60
2021/09/17 01:12:06;;;;;;;4.27;3.87;;;11.30;99.90;;;;;;4998575;28;20214;-59
2021/09/17 01:14:34;;;;;;;4.80;3.87;;;11.20;99.90;;;;;;5003935;28;20912;-58
2021/09/17 01:17:02;;;;;;;7.40;4.27;;;11.20;99.90;;;;;;4996265;28;20508;-58
2021/09/17 01:19:27;;;;;;;8.17;5.30;;;11.20;99.90;;;;;;5003927;28;20534;-58
2021/09/17 01:21:58;;;;;;;12.20;5.27;;;11.10;99.90;;;;;;5003130;28;20468;-58
2021/09/17 01:24:24;;;;;;;8.87;5.87;;;11.10;99.90;;;;;;5000275;28;20192;-57
2021/09/17 01:26:50;;;;;;;8.00;5.20;;;11.10;99.90;;;;;;5001562;28;20427;-58
2021/09/17 01:29:16;;;;;;;11.33;5.63;;;11.10;99.90;;;;;;4999352;28;20590;-58
2021/09/17 01:31:41;;;;;;;9.63;5.13;;;11.00;99.90;;;;;;5001954;28;20208;-59
2021/09/17 01:34:08;;;;;;;7.80;4.90;;;11.10;99.90;;;;;;5000604;28;20716;-57
2021/09/17 01:36:34;;;;;;;9.30;5.27;;;11.00;99.90;;;;;;5001976;28;20200;-59
2021/09/17 01:39:01;;;;;;;6.97;5.53;;;11.00;99.90;;;;;;5003332;28;20501;-59
2021/09/17 01:41:26;;;;;;;7.20;5.53;;;11.00;99.90;;;;;;4999666;28;20662;-58
2021/09/17 01:43:52;;;;;;;6.10;4.73;;;11.00;99.90;;;;;;5004255;28;20538;-58
2021/09/17 01:46:20;;;;;;;14.73;6.20;;;11.00;99.90;;;;;;5004080;28;20197;-58
2021/09/17 01:48:47;;;;;;;7.00;5.90;;;11.00;99.90;;;;;;5004645;28;20666;-58
2021/09/17 01:51:14;;;;;;;7.37;5.50;;;10.90;99.90;;;;;;5003366;28;20970;-57
2021/09/17 01:53:39;;;;;;;8.63;6.30;;;10.90;99.90;;;;;;5002624;28;20452;-58
2021/09/17 01:56:05;;;;;;;11.30;7.50;;;10.90;99.90;;;;;;5004170;28;20434;-58
2021/09/17 01:58:31;;;;;;;15.13;7.63;;;10.90;99.90;;;;;;5003763;28;20839;-59
2021/09/17 02:00:58;;;;;;;10.77;7.33;;;10.90;99.90;;;;;;5003910;28;20184;-59
2021/09/17 02:03:23;;;;;;;10.77;7.60;;;10.90;99.90;;;;;;5002985;28;20203;-58
2021/09/17 02:05:49;;;;;;;21.83;6.83;;;10.90;99.90;;;;;;5003548;28;20924;-58
2021/09/17 02:08:14;;;;;;;9.67;7.23;;;11.00;99.90;;;;;;4999533;28;20268;-59
2021/09/17 02:10:40;;;;;;;11.63;7.60;;;11.00;99.90;;;;;;5002496;28;21026;-57
2021/09/17 02:13:06;;;;;;;10.03;7.03;;;11.00;99.90;;;;;;5001625;28;20211;-59
2021/09/17 02:15:32;;;;;;;14.43;7.10;;;11.00;99.90;;;;;;5002527;28;20196;-58
2021/09/17 02:17:57;;;;;;;12.30;5.60;;;11.00;99.90;;;;;;5002705;28;20824;-61
2021/09/17 02:20:23;;;;;;;19.40;7.60;;;11.00;99.90;;;;;;5002347;28;20180;-60
2021/09/17 02:22:49;;;;;;;20.10;7.57;;;11.00;99.90;;;;;;5001212;28;20331;-58
2021/09/17 02:25:15;;;;;;;15.97;7.33;;;10.90;99.90;;;;;;5000689;28;20207;-60
2021/09/17 02:27:40;;;;;;;14.27;7.87;;;10.90;99.90;;;;;;5001493;28;20176;-59
2021/09/17 02:30:08;;;;;;;11.53;7.47;;;10.90;99.90;;;;;;5002331;28;20627;-58
2021/09/17 02:32:34;;;;;;;27.87;7.77;;;10.90;99.90;;;;;;5000825;28;20291;-58
2021/09/17 02:34:59;;;;;;;18.00;10.33;;;10.90;99.90;;;;;;5003719;28;20550;-62
2021/09/17 02:37:25;;;;;;;22.80;10.60;;;11.00;99.90;;;;;;5003312;28;20188;-60
2021/09/17 02:39:50;;;;;;;29.83;11.13;;;11.00;99.90;;;;;;5002355;28;20591;-60
2021/09/17 02:42:16;;;;;;;27.53;11.10;;;11.00;99.90;;;;;;5003941;28;20200;-58
2021/09/17 02:44:42;;;;;;;35.17;12.63;;;11.10;99.90;;;;;;5003464;28;20632;-60
2021/09/17 02:47:07;;;;;;;32.03;13.00;;;11.10;99.90;;;;;;5002502;28;20216;-60
2021/09/17 02:49:33;;;;;;;38.50;14.00;;;11.10;99.90;;;;;;5001118;28;20669;-60
2021/09/17 02:52:02;;;;;;;41.63;14.47;;;11.10;99.90;;;;;;5002952;28;20271;-59
2021/09/17 02:54:28;;;;;;;34.60;13.33;;;11.10;99.90;;;;;;5002975;28;20467;-60
2021/09/17 02:56:54;;;;;;;24.00;11.47;;;11.10;99.90;;;;;;5008929;28;20435;-57
2021/09/17 02:59:19;;;;;;;16.03;9.20;;;11.10;99.90;;;;;;5005716;28;20208;-61
2021/09/17 03:01:45;;;;;;;21.20;9.20;;;11.10;99.90;;;;;;5009021;28;20204;-58
2021/09/17 03:04:10;;;;;;;22.77;10.37;;;11.10;99.90;;;;;;4990983;28;20310;-60
2021/09/17 03:06:36;;;;;;;15.00;8.67;;;11.10;99.90;;;;;;5003198;28;20239;-60
2021/09/17 03:09:02;;;;;;;25.20;9.63;;;11.10;99.90;;;;;;5006313;28;20184;-58
2021/09/17 03:11:28;;;;;;;18.20;9.30;;;11.10;99.90;;;;;;5009002;28;20232;-62
2021/09/17 03:13:53;;;;;;;24.73;9.73;;;11.10;99.90;;;;;;5009310;28;20442;-57
2021/09/17 03:16:19;;;;;;;21.37;9.20;;;11.10;99.90;;;;;;5008456;28;20637;-60
2021/09/17 03:18:44;;;;;;;28.97;13.13;;;11.10;99.90;;;;;;5007681;28;20637;-59
2021/09/17 03:21:10;;;;;;;30.03;10.80;;;11.10;99.90;;;;;;5004946;28;20214;-61
2021/09/17 03:23:36;;;;;;;18.23;9.43;;;11.10;99.90;;;;;;5009159;28;20196;-60
2021/09/17 03:26:01;;;;;;;11.07;7.60;;;11.10;99.90;;;;;;5006037;28;20188;-58
2021/09/17 03:28:27;;;;;;;8.83;6.50;;;11.10;99.90;;;;;;5008266;28;20188;-60
2021/09/17 03:30:53;;;;;;;10.60;6.90;;;11.10;99.90;;;;;;4994556;28;20220;-60
2021/09/17 03:33:18;;;;;;;9.00;6.33;;;11.10;99.90;;;;;;5006661;28;20653;-60
2021/09/17 03:35:44;;;;;;;13.70;7.70;;;11.00;99.90;;;;;;5007252;28;20647;-58
2021/09/17 03:38:10;;;;;;;12.77;7.27;;;11.00;99.90;;;;;;4990122;28;20180;-58
2021/09/17 03:40:38;;;;;;;14.50;7.23;;;11.00;99.90;;;;;;5007325;28;20188;-59
2021/09/17 03:43:04;;;;;;;14.20;7.67;;;11.00;99.90;;;;;;5010825;28;20861;-61
2021/09/17 03:45:35;;;;;;;13.43;7.67;;;11.00;99.90;;;;;;5005369;28;20454;-59
2021/09/17 03:48:09;;;;;;;24.77;8.97;;;11.00;99.90;;;;;;5007421;28;20799;-61
2021/09/17 03:50:38;;;;;;;17.70;8.27;;;11.00;99.90;;;;;;5006712;28;20435;-60
2021/09/17 03:53:05;;;;;;;15.90;8.10;;;11.10;99.90;;;;;;5001234;28;20470;-60
2021/09/17 03:55:32;;;;;;;18.00;7.70;;;11.00;99.90;;;;;;4991480;28;20892;-58
2021/09/17 03:57:57;;;;;;;17.17;7.67;;;11.10;99.90;;;;;;5003529;28;20435;-58
2021/09/17 04:00:23;;;;;;;10.77;7.13;;;11.00;99.90;;;;;;4985410;28;20498;-57
2021/09/17 04:02:49;;;;;;;11.50;6.80;;;11.10;99.90;;;;;;5006139;28;20275;-58
2021/09/17 04:05:14;;;;;;;14.40;6.90;;;11.10;99.90;;;;;;5005077;28;20644;-58
2021/09/17 04:07:42;;;;;;;12.40;5.87;;;11.00;99.90;;;;;;5003644;28;20941;-61
2021/09/17 04:10:11;;;;;;;9.47;6.13;;;11.00;99.90;;;;;;5000813;28;20176;-60
2021/09/17 04:12:37;;;;;;;7.17;5.77;;;11.00;99.90;;;;;;5005227;28;20466;-60
2021/09/17 04:15:03;;;;;;;7.50;5.83;;;11.00;99.90;;;;;;5006675;28;20491;-60
2021/09/17 04:17:29;;;;;;;5.67;4.90;;;11.00;99.90;;;;;;5005789;28;20587;-60
2021/09/17 04:19:54;;;;;;;6.60;5.70;;;11.00;99.90;;;;;;4989389;28;20437;-61
2021/09/17 04:22:20;;;;;;;5.70;5.00;;;10.90;99.90;;;;;;5007610;28;20681;-62
2021/09/17 04:24:46;;;;;;;6.73;5.03;;;10.90;99.90;;;;;;5007027;28;20719;-61
2021/09/17 04:27:11;;;;;;;7.20;5.23;;;10.90;99.90;;;;;;4990976;28;20172;-59
2021/09/17 04:29:37;;;;;;;10.03;5.67;;;10.90;99.90;;;;;;5007102;28;20195;-57
2021/09/17 04:32:03;;;;;;;6.57;5.20;;;10.90;99.90;;;;;;5001439;28;20172;-58
2021/09/17 04:34:29;;;;;;;6.83;4.63;;;10.90;99.90;;;;;;4990637;28;20217;-61
2021/09/17 04:36:55;;;;;;;6.27;5.33;;;10.90;99.90;;;;;;4997802;28;20423;-60
2021/09/17 04:39:21;;;;;;;7.37;5.20;;;10.90;99.90;;;;;;5002225;28;20263;-63
2021/09/17 04:41:46;;;;;;;7.40;5.30;;;10.90;99.90;;;;;;5006533;28;20825;-59
2021/09/17 04:44:12;;;;;;;8.23;5.40;;;10.90;99.90;;;;;;5009204;28;20187;-60
2021/09/17 04:46:38;;;;;;;9.50;5.10;;;10.90;99.90;;;;;;5007081;28;20191;-58
2021/09/17 04:49:04;;;;;;;11.50;5.73;;;10.90;99.90;;;;;;5008569;28;20177;-61
2021/09/17 04:51:30;;;;;;;9.60;6.40;;;11.00;99.90;;;;;;5006169;28;20724;-61
2021/09/17 04:53:57;;;;;;;9.03;5.47;;;11.00;99.90;;;;;;5006485;28;20200;-61
2021/09/17 04:56:22;;;;;;;8.70;5.73;;;11.00;99.90;;;;;;5001535;28;20987;-60
2021/09/17 04:58:48;;;;;;;7.57;6.30;;;11.00;99.90;;;;;;4990626;28;20430;-57
2021/09/17 05:01:14;;;;;;;10.13;6.30;;;11.00;99.90;;;;;;5007793;28;20177;-59
2021/09/17 05:03:39;;;;;;;14.07;7.33;;;11.00;99.90;;;;;;5003890;28;20255;-61
2021/09/17 05:06:05;;;;;;;7.10;5.30;;;11.00;99.90;;;;;;5009543;28;20256;-62
2021/09/17 05:08:30;;;;;;;10.17;5.20;;;11.00;99.90;;;;;;5010945;28;20723;-60
2021/09/17 05:10:56;;;;;;;11.60;4.87;;;11.00;99.90;;;;;;5005251;28;20185;-60
2021/09/17 05:13:22;;;;;;;10.40;5.70;;;11.00;99.90;;;;;;4991353;28;20220;-60
2021/09/17 05:15:47;;;;;;;9.33;5.80;;;11.00;99.90;;;;;;5002968;28;20200;-60
2021/09/17 05:18:14;;;;;;;9.17;5.30;;;11.00;99.90;;;;;;5009974;28;20859;-61
2021/09/17 05:20:39;;;;;;;9.50;5.73;;;11.00;99.90;;;;;;5010869;28;20172;-61
2021/09/17 05:23:06;;;;;;;10.90;6.47;;;11.00;99.90;;;;;;5011045;28;20502;-60
2021/09/17 05:25:32;;;;;;;9.40;5.97;;;11.00;99.90;;;;;;4992854;28;20168;-61
2021/09/17 05:27:58;;;;;;;9.77;6.40;;;11.00;99.90;;;;;;5009754;28;20518;-59
2021/09/17 05:30:24;;;;;;;10.63;6.47;;;11.10;99.90;;;;;;5004283;28;20519;-60
2021/09/17 05:32:50;;;;;;;8.60;5.80;;;11.10;99.90;;;;;;5010115;28;20243;-58
2021/09/17 05:35:16;;;;;;;7.20;5.50;;;11.20;99.90;;;;;;5011388;28;20790;-60
2021/09/17 05:37:42;;;;;;;8.73;5.43;;;11.20;99.90;;;;;;4992983;28;20550;-58
2021/09/17 05:40:09;;;;;;;8.43;6.20;;;11.30;99.90;;;;;;5010439;28;20763;-60
2021/09/17 05:42:35;;;;;;;9.93;6.40;;;11.30;99.90;;;;;;4993274;28;20189;-60
2021/09/17 05:45:00;;;;;;;12.37;7.03;;;11.30;99.90;;;;;;5011421;28;20419;-61
2021/09/17 05:47:26;;;;;;;11.50;6.40;;;11.30;99.90;;;;;;5009468;28;20230;-60
2021/09/17 05:49:52;;;;;;;10.90;7.27;;;11.30;99.90;;;;;;5009096;28;20191;-58
2021/09/17 05:52:18;;;;;;;10.87;6.50;;;11.40;99.90;;;;;;4993153;28;20208;-60
2021/09/17 05:54:44;;;;;;;13.97;7.10;;;11.40;99.90;;;;;;5008813;28;20284;-60
2021/09/17 05:57:09;;;;;;;10.67;6.50;;;11.40;99.90;;;;;;5010636;28;20177;-60
2021/09/17 05:59:35;;;;;;;10.47;7.23;;;11.40;99.90;;;;;;4999577;28;20422;-61
2021/09/17 06:02:01;;;;;;;11.60;7.20;;;11.50;99.90;;;;;;5009986;28;20176;-60
2021/09/17 06:04:26;;;;;;;12.90;6.87;;;11.50;99.90;;;;;;5009494;28;20231;-61
2021/09/17 06:06:52;;;;;;;14.17;7.40;;;11.50;99.90;;;;;;5009162;28;20172;-58
2021/09/17 06:09:17;;;;;;;10.73;7.57;;;11.60;99.90;;;;;;5010593;28;20266;-61
2021/09/17 06:11:43;;;;;;;16.00;7.13;;;11.60;99.90;;;;;;5010998;28;20455;-60
2021/09/17 06:14:09;;;;;;;11.80;7.10;;;11.60;99.90;;;;;;5009596;28;20299;-60
2021/09/17 06:16:34;;;;;;;12.27;7.50;;;11.60;99.90;;;;;;5010580;28;20173;-60
2021/09/17 06:19:03;;;;;;;16.13;6.97;;;11.60;99.90;;;;;;5009984;28;20169;-61
2021/09/17 06:21:33;;;;;;;9.27;7.20;;;11.70;99.90;;;;;;5009472;28;20266;-60
2021/09/17 06:24:00;;;;;;;10.23;6.43;;;11.60;99.90;;;;;;5009714;28;20450;-60
2021/09/17 06:26:35;;;;;;;15.40;7.47;;;11.70;99.90;;;;;;4995023;28;20726;-61
2021/09/17 06:29:05;;;;;;;11.00;7.33;;;11.70;99.90;;;;;;5009722;28;20466;-61
2021/09/17 06:31:31;;;;;;;12.03;8.30;;;11.80;99.90;;;;;;4992499;28;20412;-61
2021/09/17 06:33:57;;;;;;;13.83;7.60;;;11.90;99.90;;;;;;5009454;28;20972;-60
2021/09/17 06:36:23;;;;;;;14.53;8.43;;;11.90;99.90;;;;;;5008182;28;20423;-62
2021/09/17 06:38:49;;;;;;;10.67;7.30;;;12.00;99.90;;;;;;5008423;28;20191;-61
2021/09/17 06:41:14;;;;;;;13.93;7.70;;;12.10;99.90;;;;;;5010043;28;20190;-61
2021/09/17 06:43:40;;;;;;;10.93;7.83;;;12.10;99.90;;;;;;5009865;28;20605;-60
2021/09/17 06:46:06;;;;;;;11.20;7.40;;;12.20;99.90;;;;;;5009692;28;20176;-60
2021/09/17 06:48:31;;;;;;;16.07;7.50;;;12.20;99.90;;;;;;4991560;28;20169;-60
2021/09/17 06:50:57;;;;;;;13.00;8.30;;;12.30;99.90;;;;;;5007805;28;20260;-60
2021/09/17 06:53:25;;;;;;;14.70;7.53;;;12.30;99.90;;;;;;5009455;28;20196;-61
2021/09/17 06:55:51;;;;;;;15.40;9.23;;;12.30;99.90;;;;;;5009464;28;20283;-60
2021/09/17 06:58:18;;;;;;;16.70;8.80;;;12.40;99.90;;;;;;5008627;28;20833;-59
2021/09/17 07:00:43;;;;;;;13.70;8.50;;;12.40;99.90;;;;;;5008800;28;20176;-61
2021/09/17 07:03:09;;;;;;;13.47;8.10;;;12.40;99.90;;;;;;5009493;28;20443;-60
2021/09/17 07:05:35;;;;;;;10.60;7.87;;;12.50;99.90;;;;;;5009689;28;20223;-60
2021/09/17 07:08:01;;;;;;;17.60;8.70;;;12.60;99.90;;;;;;5008839;28;20645;-61
2021/09/17 07:10:27;;;;;;;16.13;8.63;;;12.70;99.90;;;;;;5008902;28;20786;-60
2021/09/17 07:12:53;;;;;;;16.67;9.57;;;12.70;99.90;;;;;;5009314;28;20482;-61
2021/09/17 07:15:18;;;;;;;15.13;8.73;;;12.80;99.90;;;;;;5009258;28;21155;-60
2021/09/17 07:17:44;;;;;;;14.83;8.60;;;12.90;99.90;;;;;;5008731;28;20657;-59
2021/09/17 07:20:10;;;;;;;15.87;8.77;;;12.90;99.90;;;;;;5008637;28;20637;-61
2021/09/17 07:22:36;;;;;;;14.93;8.10;;;13.00;99.90;;;;;;4991220;28;20545;-60
2021/09/17 07:25:04;;;;;;;12.67;8.40;;;13.10;99.90;;;;;;5009571;28;20418;-61
2021/09/17 07:27:30;;;;;;;10.57;7.83;;;13.20;99.90;;;;;;4996777;28;20188;-60
2021/09/17 07:29:56;;;;;;;10.90;8.10;;;13.20;99.90;;;;;;5003647;28;20531;-60
2021/09/17 07:32:21;;;;;;;14.43;7.63;;;13.20;99.90;;;;;;5009239;28;20507;-61
2021/09/17 07:34:47;;;;;;;9.20;7.10;;;13.30;99.90;;;;;;5008491;28;20607;-60
2021/09/17 07:37:12;;;;;;;11.50;7.30;;;13.30;99.90;;;;;;4990276;28;20348;-60
2021/09/17 07:39:38;;;;;;;12.50;8.40;;;13.40;99.90;;;;;;4989468;28;20173;-60
2021/09/17 07:42:04;;;;;;;16.77;8.57;;;13.40;99.90;;;;;;4992126;28;20564;-59
2021/09/17 07:44:31;;;;;;;12.27;9.10;;;13.50;99.90;;;;;;5009068;28;20164;-61
2021/09/17 07:46:58;;;;;;;12.80;9.03;;;13.50;99.90;;;;;;5010777;28;20415;-59
2021/09/17 07:49:23;;;;;;;16.90;9.40;;;13.50;99.90;;;;;;5010769;28;20411;-59
2021/09/17 07:51:49;;;;;;;21.30;9.93;;;13.60;99.90;;;;;;5013118;28;20414;-60
2021/09/17 07:54:15;;;;;;;18.40;8.90;;;13.60;99.90;;;;;;4998003;28;20283;-60
2021/09/17 07:56:40;;;;;;;15.60;10.20;;;13.60;99.90;;;;;;5016039;28;20183;-60
2021/09/17 07:59:06;;;;;;;9.80;7.20;;;13.70;99.90;;;;;;5012299;28;20689;-61
2021/09/17 08:01:32;;;;;;;19.43;7.47;;;13.70;99.90;;;;;;5013039;28;20176;-58
2021/09/17 08:03:57;;;;;;;13.77;8.10;;;13.70;99.90;;;;;;5008522;28;20201;-60
2021/09/17 08:06:23;;;;;;;10.63;6.47;;;13.70;99.90;;;;;;5013596;28;20207;-60
2021/09/17 08:08:48;;;;;;;11.30;7.17;;;13.80;99.90;;;;;;5011996;28;20282;-61
2021/09/17 08:11:14;;;;;;;7.40;6.10;;;13.90;99.90;;;;;;5012176;28;20270;-59
2021/09/17 08:13:40;;;;;;;8.60;6.63;;;14.00;99.90;;;;;;5012457;28;20200;-60
2021/09/17 08:16:05;;;;;;;12.23;6.93;;;14.10;99.90;;;;;;5011426;28;20215;-60
2021/09/17 08:18:31;;;;;;;10.63;6.70;;;14.10;99.90;;;;;;5012156;28;20171;-60
2021/09/17 08:21:00;;;;;;;9.67;6.30;;;14.30;99.90;;;;;;5012397;28;20219;-60
2021/09/17 08:23:26;;;;;;;6.50;5.33;;;14.30;99.90;;;;;;4988598;28;20211;-61
2021/09/17 08:25:55;;;;;;;9.17;6.70;;;14.40;99.90;;;;;;5012538;28;20433;-60
2021/09/17 08:28:25;;;;;;;8.07;5.83;;;14.50;99.90;;;;;;4996800;28;20434;-60
2021/09/17 08:30:51;;;;;;;6.93;5.90;;;14.60;99.90;;;;;;4993662;28;20518;-58
2021/09/17 08:33:17;;;;;;;8.00;5.93;;;14.70;99.90;;;;;;4990669;28;21006;-60
2021/09/17 08:35:43;;;;;;;6.67;5.37;;;14.70;99.90;;;;;;5011871;28;20454;-60
2021/09/17 08:38:09;;;;;;;6.87;5.40;;;14.80;99.90;;;;;;5010638;28;20255;-59
2021/09/17 08:40:34;;;;;;;7.80;5.33;;;14.90;99.90;;;;;;5012196;28;20183;-59
2021/09/17 08:43:03;;;;;;;7.23;5.40;;;15.00;99.90;;;;;;4975779;28;20456;-60
2021/09/17 08:45:30;;;;;;;8.80;5.90;;;15.10;99.90;;;;;;4995813;28;20275;-60
2021/09/17 08:47:58;;;;;;;7.57;5.47;;;15.20;99.90;;;;;;5011534;28;20969;-60
2021/09/17 08:50:24;;;;;;;5.73;4.20;;;15.30;99.90;;;;;;4978484;28;20789;-60
2021/09/17 08:52:50;;;;;;;7.17;5.03;;;15.40;99.90;;;;;;4981333;28;20451;-60
2021/09/17 08:55:16;;;;;;;7.47;4.90;;;15.50;99.20;;;;;;5001076;28;20467;-60
2021/09/17 08:57:43;;;;;;;4.90;4.40;;;15.50;99.90;;;;;;4994544;28;20795;-60
2021/09/17 09:00:30;;;;;;;5.27;4.77;;;15.60;99.90;;;;;;5010938;28;20227;-62
2021/09/17 09:03:00;;;;;;;6.93;4.53;;;15.70;99.90;;;;;;5011696;28;20427;-60
2021/09/17 09:05:34;;;;;;;5.70;4.03;;;15.80;99.20;;;;;;5011739;28;20412;-60
2021/09/17 09:08:01;;;;;;;5.27;4.40;;;15.90;98.20;;;;;;4992337;28;20439;-60
2021/09/17 09:10:27;;;;;;;6.53;4.90;;;16.00;97.40;;;;;;5011773;28;20477;-60
2021/09/17 09:12:55;;;;;;;6.90;5.50;;;16.10;96.60;;;;;;4994471;28;20858;-61
2021/09/17 09:15:25;;;;;;;7.00;5.03;;;16.10;96.40;;;;;;5002780;28;20500;-60
2021/09/17 09:18:00;;;;;;;5.40;4.90;;;16.20;95.90;;;;;;5011175;28;20478;-60
2021/09/17 09:20:36;;;;;;;5.83;4.60;;;16.30;95.20;;;;;;4993618;28;20423;-60
2021/09/17 09:23:12;;;;;;;6.33;4.70;;;16.30;95.00;;;;;;5010010;28;20438;-60
2021/09/17 09:25:55;;;;;;;5.40;3.50;;;16.40;93.50;;;;;;5011463;28;20423;-60
2021/09/17 09:28:25;;;;;;;4.00;3.63;;;16.50;90.60;;;;;;5010830;28;20892;-60
2021/09/17 09:30:53;;;;;;;5.77;3.53;;;16.60;90.20;;;;;;5011490;28;20423;-60
2021/09/17 09:33:24;;;;;;;4.60;4.10;;;16.60;88.30;;;;;;4991686;28;20483;-60
2021/09/17 09:36:10;;;;;;;3.90;3.60;;;16.80;90.00;;;;;;4989973;28;20837;-60
2021/09/17 09:38:36;;;;;;;4.40;4.03;;;16.80;85.30;;;;;;5003413;28;20431;-60
2021/09/17 09:41:03;;;;;;;4.87;3.10;;;16.90;85.00;;;;;;5010471;28;20483;-60
2021/09/17 09:43:30;;;;;;;3.10;2.90;;;17.10;83.30;;;;;;5013869;28;20222;-60
2021/09/17 09:46:22;;;;;;;3.60;2.90;;;17.30;82.00;;;;;;5010990;28;20466;-60
2021/09/17 09:49:25;;;;;;;3.80;3.37;;;17.70;77.10;;;;;;5009371;28;20431;-60
2021/09/17 09:51:58;;;;;;;2.90;2.70;;;17.90;75.00;;;;;;5010672;28;20477;-60
2021/09/17 09:54:28;;;;;;;3.70;3.37;;;17.90;69.70;;;;;;5010503;28;20502;-60
2021/09/17 09:56:55;;;;;;;3.33;3.03;;;17.80;71.50;;;;;;5003355;28;20408;-61
2021/09/17 09:59:24;;;;;;;5.00;3.60;;;17.80;68.70;;;;;;4992162;28;20841;-60
2021/09/17 10:01:52;;;;;;;4.27;3.47;;;17.70;69.40;;;;;;5009677;28;20434;-61
2021/09/17 10:04:23;;;;;;;4.13;3.73;;;17.60;69.20;;;;;;5010907;28;20739;-60
2021/09/17 10:07:00;;;;;;;3.40;3.13;;;17.50;67.70;;;;;;4994822;28;20432;-60
2021/09/17 10:09:26;;;;;;;3.80;3.43;;;17.40;68.50;;;;;;5010397;28;20396;-60
2021/09/17 10:11:52;;;;;;;3.57;3.27;;;17.40;71.60;;;;;;5011091;28;20411;-62
2021/09/17 10:14:18;;;;;;;4.50;3.23;;;17.30;72.50;;;;;;5013019;28;20767;-60
2021/09/17 10:16:47;;;;;;;3.70;3.40;;;17.40;71.40;;;;;;5010737;28;20542;-60
2021/09/17 10:19:13;;;;;;;3.50;3.20;;;17.30;67.80;;;;;;5009647;28;20419;-61
2021/09/17 10:22:01;;;;;;;4.67;3.00;;;17.30;70.10;;;;;;5009047;28;20435;-61
2021/09/17 10:24:26;;;;;;;3.53;3.07;;;17.40;69.70;;;;;;5010340;28;20263;-62
2021/09/17 10:27:06;;;;;;;3.03;2.73;;;17.40;69.10;;;;;;4998768;28;20511;-60
2021/09/17 10:29:37;;;;;;;3.73;3.37;;;17.50;67.60;;;;;;5009454;28;20195;-60
2021/09/17 10:32:09;;;;;;;3.80;3.30;;;17.60;68.40;;;;;;5009172;28;20534;-61
2021/09/17 10:34:43;;;;;;;4.00;3.23;;;17.90;74.10;;;;;;5009091;28;20463;-60
2021/09/17 10:37:09;;;;;;;2.83;2.53;;;18.10;67.10;;;;;;5010837;28;20427;-60
2021/09/17 10:39:36;;;;;;;3.53;3.20;;;18.30;65.80;;;;;;5008634;28;20617;-60
2021/09/17 10:42:07;;;;;;;4.30;3.37;;;18.40;65.50;;;;;;5009815;28;20173;-60
2021/09/17 10:44:58;;;;;;;3.80;3.37;;;18.60;64.60;;;;;;5009184;28;20431;-61
2021/09/17 10:47:39;;;;;;;3.60;3.30;;;18.90;65.30;;;;;;5007894;28;20849;-60
2021/09/17 10:50:06;;;;;;;3.17;2.77;;;19.10;61.20;;;;;;4999188;28;20437;-59
2021/09/17 10:52:50;;;;;;;3.20;3.00;;;19.30;60.20;;;;;;5008917;28;20447;-60
2021/09/17 10:55:43;;;;;;;3.23;2.90;;;19.40;57.00;;;;;;5009101;28;20451;-62
2021/09/17 10:58:24;;;;;;;6.63;2.80;;;19.40;57.60;;;;;;5008600;28;20398;-60
2021/09/17 11:01:01;;;;;;;3.27;3.07;;;19.50;55.80;;;;;;5009560;28;20399;-61
2021/09/17 11:03:36;;;;;;;3.33;2.97;;;19.60;56.30;;;;;;5005183;28;20986;-60
2021/09/17 11:06:25;;;;;;;3.40;3.10;;;19.60;55.60;;;;;;5007725;28;20414;-60
2021/09/17 11:08:55;;;;;;;4.60;2.90;;;19.70;57.20;;;;;;4999846;28;20400;-61
2021/09/17 11:11:25;;;;;;;4.40;3.00;;;19.60;52.70;;;;;;5005462;28;20557;-60
2021/09/17 11:13:53;;;;;;;3.73;3.40;;;19.60;54.00;;;;;;4991678;28;20799;-60
2021/09/17 11:16:21;;;;;;;5.07;3.50;;;19.60;55.90;;;;;;4990924;28;20447;-62
2021/09/17 11:19:11;;;;;;;3.30;3.00;;;19.80;57.80;;;;;;5008507;28;20407;-63
2021/09/17 11:21:38;;;;;;;3.73;3.40;;;20.00;56.50;;;;;;4990710;28;20444;-59
2021/09/17 11:24:05;;;;;;;4.30;3.10;;;20.20;56.20;;;;;;5003436;28;20469;-60
2021/09/17 11:26:33;;;;;;;3.20;3.00;;;20.40;55.80;;;;;;5009304;28;20415;-60
2021/09/17 11:29:07;;;;;;;3.13;2.90;;;20.60;55.90;;;;;;5004369;28;20435;-61
2021/09/17 11:31:41;;;;;;;3.10;2.80;;;20.90;54.70;;;;;;5008198;28;20786;-61
2021/09/17 11:34:10;;;;;;;2.83;2.60;;;21.00;54.70;;;;;;5008530;28;20520;-60
2021/09/17 11:36:52;;;;;;;2.77;2.57;;;21.20;53.40;;;;;;4990332;28;20502;-60
2021/09/17 11:39:22;;;;;;;2.63;2.43;;;21.40;53.10;;;;;;5007654;28;20445;-61
2021/09/17 11:41:51;;;;;;;2.90;2.57;;;21.50;52.20;;;;;;5008662;28;20501;-61
2021/09/17 11:44:48;;;;;;;2.20;2.10;;;21.60;51.60;;;;;;5008806;28;20845;-58
2021/09/17 11:47:28;;;;;;;2.80;2.60;;;21.80;52.40;;;;;;5008549;28;20411;-60
2021/09/17 11:50:05;;;;;;;2.77;2.57;;;22.00;51.70;;;;;;5006960;28;20933;-62
2021/09/17 11:52:40;;;;;;;2.40;2.27;;;22.20;51.60;;;;;;5008155;28;20423;-60
2021/09/17 11:55:10;;;;;;;2.77;2.57;;;22.00;49.20;;;;;;5008614;28;20466;-61
2021/09/17 11:57:41;;;;;;;2.50;2.30;;;22.00;49.70;;;;;;5018261;28;20430;-61
2021/09/17 12:00:10;;;;;;;2.43;2.23;;;22.00;50.20;;;;;;5022942;28;20917;-60
2021/09/17 12:02:35;;;;;;;2.83;2.20;;;22.30;50.50;;;;;;5007314;28;20439;-60
2021/09/17 12:05:05;;;;;;;3.80;2.80;;;22.40;48.90;;;;;;5004915;28;20436;-61
2021/09/17 12:07:31;;;;;;;2.87;2.60;;;22.60;49.50;;;;;;5006157;28;20176;-60
2021/09/17 12:09:57;;;;;;;2.50;2.30;;;22.70;48.60;;;;;;5007122;28;20439;-62
2021/09/17 12:12:34;;;;;;;3.77;2.43;;;22.60;48.10;;;;;;5007006;28;20441;-60
2021/09/17 12:15:00;;;;;;;2.50;2.30;;;22.60;48.20;;;;;;5002995;28;20629;-62
2021/09/17 12:17:26;;;;;;;2.80;2.47;;;22.50;48.00;;;;;;5000205;28;20483;-60
2021/09/17 12:20:06;;;;;;;3.17;2.90;;;22.30;48.30;;;;;;5004508;28;20514;-60
2021/09/17 12:22:46;;;;;;;2.60;2.40;;;22.20;49.40;;;;;;4998049;28;20695;-57
2021/09/17 12:25:15;;;;;;;2.63;2.43;;;22.10;47.80;;;;;;4981481;28;20488;-59
2021/09/17 12:27:48;;;;;;;2.60;2.40;;;21.80;48.30;;;;;;4994950;28;20436;-56
2021/09/17 12:30:16;;;;;;;2.67;2.47;;;21.60;49.20;;;;;;5000165;28;20467;-58
2021/09/17 12:32:43;;;;;;;2.70;2.50;;;21.50;49.80;;;;;;5001086;28;20955;-59
2021/09/17 12:35:14;;;;;;;2.63;2.43;;;21.70;50.80;;;;;;4996706;28;20900;-57
2021/09/17 12:37:43;;;;;;;3.30;2.40;;;22.00;50.20;;;;;;5005061;28;20418;-59
2021/09/17 12:40:09;;;;;;;2.70;2.50;;;22.20;48.40;;;;;;5003466;28;20423;-56
2021/09/17 12:42:35;;;;;;;3.40;3.10;;;22.30;47.50;;;;;;5002600;28;20447;-57
2021/09/17 12:45:02;;;;;;;2.50;2.23;;;22.60;48.50;;;;;;5002280;28;20939;-58
2021/09/17 12:47:28;;;;;;;3.70;2.60;;;22.70;49.40;;;;;;5002037;28;20729;-57